sensor_id;sensor_type;location;lat;lon;timestamp;temperature;humidity
17571;DHT22;8903;52.220;20.978;2023-03-01T00:02:12;-1.80;99.90
17571;DHT22;8903;52.220;20.978;2023-03-01T00:04:39;-1.80;99.90
17571;DHT22;8903;52.220;20.978;2023-03-01T00:07:06;-1.80;99.90
17571;DHT22;8903;52.220;20.978;2023-03-01T00:09:33;-1.80;99.90
17571;DHT22;8903;52.220;20.978;2023-03-01T00:12:01;-1.80;99.90
17571;DHT22;8903;52.220;20.978;2023-03-01T00:14:29;-1.80;99.90
17571;DHT22;8903;52.220;20.978;2023-03-01T00:16:56;-1.90;99.90
17571;DHT22;8903;52.220;20.978;2023-03-01T00:19:23;-1.90;99.90
17571;DHT22;8903;52.220;20.978;2023-03-01T00:21:50;-1.90;99.90
17571;DHT22;8903;52.220;20.978;2023-03-01T00:24:17;-1.90;99.90
17571;DHT22;8903;52.220;20.978;2023-03-01T00:26:44;-2.00;99.90
17571;DHT22;8903;52.220;20.978;2023-03-01T00:29:13;-2.00;99.90
17571;DHT22;8903;52.220;20.978;2023-03-01T00:31:40;-2.00;99.90
17571;DHT22;8903;52.220;20.978;2023-03-01T00:34:07;-2.10;99.90
17571;DHT22;8903;52.220;20.978;2023-03-01T00:36:37;-2.10;99.90
17571;DHT22;8903;52.220;20.978;2023-03-01T00:39:05;-2.10;99.90
17571;DHT22;8903;52.220;20.978;2023-03-01T00:41:32;-2.10;99.90
17571;DHT22;8903;52.220;20.978;2023-03-01T00:44:01;-2.10;99.90
17571;DHT22;8903;52.220;20.978;2023-03-01T00:46:30;-2.20;99.90
17571;DHT22;8903;52.220;20.978;2023-03-01T00:48:57;-2.20;99.90
17571;DHT22;8903;52.220;20.978;2023-03-01T00:51:28;-2.20;99.90
17571;DHT22;8903;52.220;20.978;2023-03-01T00:53:57;-2.20;99.90
17571;DHT22;8903;52.220;20.978;2023-03-01T00:56:24;-2.30;99.90
17571;DHT22;8903;52.220;20.978;2023-03-01T00:58:51;-2.30;99.90
17571;DHT22;8903;52.220;20.978;2023-03-01T01:01:20;-2.30;99.90
17571;DHT22;8903;52.220;20.978;2023-03-01T01:03:51;-2.30;99.90
17571;DHT22;8903;52.220;20.978;2023-03-01T01:06:20;-2.20;99.90
17571;DHT22;8903;52.220;20.978;2023-03-01T01:08:48;-2.20;99.90
17571;DHT22;8903;52.220;20.978;2023-03-01T01:11:16;-2.20;99.90
17571;DHT22;8903;52.220;20.978;2023-03-01T01:13:44;-2.20;99.90
17571;DHT22;8903;52.220;20.978;2023-03-01T01:16:11;-2.20;99.90
17571;DHT22;8903;52.220;20.978;2023-03-01T01:18:38;-2.10;99.90
17571;DHT22;8903;52.220;20.978;2023-03-01T01:21:10;-2.10;99.90
17571;DHT22;8903;52.220;20.978;2023-03-01T01:23:39;-2.20;99.90
17571;DHT22;8903;52.220;20.978;2023-03-01T01:26:07;-2.10;99.90
17571;DHT22;8903;52.220;20.978;2023-03-01T01:28:34;-2.20;99.90
17571;DHT22;8903;52.220;20.978;2023-03-01T01:31:01;-2.10;99.90
17571;DHT22;8903;52.220;20.978;2023-03-01T01:33:28;-2.10;99.90
17571;DHT22;8903;52.220;20.978;2023-03-01T01:35:55;-2.10;99.90
17571;DHT22;8903;52.220;20.978;2023-03-01T01:38:24;-2.10;99.90
17571;DHT22;8903;52.220;20.978;2023-03-01T01:40:51;-2.00;99.90
17571;DHT22;8903;52.220;20.978;2023-03-01T01:43:21;-2.00;99.90
17571;DHT22;8903;52.220;20.978;2023-03-01T01:45:49;-1.90;99.90
17571;DHT22;8903;52.220;20.978;2023-03-01T01:48:19;-2.00;99.90
17571;DHT22;8903;52.220;20.978;2023-03-01T01:50:54;-2.00;99.90
17571;DHT22;8903;52.220;20.978;2023-03-01T01:53:23;-1.90;99.90
17571;DHT22;8903;52.220;20.978;2023-03-01T01:55:53;-2.00;99.90
17571;DHT22;8903;52.220;20.978;2023-03-01T01:58:24;-1.90;99.90
17571;DHT22;8903;52.220;20.978;2023-03-01T02:00:53;-2.00;99.90
17571;DHT22;8903;52.220;20.978;2023-03-01T02:03:25;-2.00;99.90
17571;DHT22;8903;52.220;20.978;2023-03-01T02:05:58;-2.00;99.90
17571;DHT22;8903;52.220;20.978;2023-03-01T02:08:31;-2.00;99.90
17571;DHT22;8903;52.220;20.978;2023-03-01T02:10:59;-2.00;99.90
17571;DHT22;8903;52.220;20.978;2023-03-01T02:13:30;-1.90;99.90
17571;DHT22;8903;52.220;20.978;2023-03-01T02:15:58;-1.90;99.90
17571;DHT22;8903;52.220;20.978;2023-03-01T02:18:26;-1.90;99.90
17571;DHT22;8903;52.220;20.978;2023-03-01T02:21:05;-2.00;99.90
17571;DHT22;8903;52.220;20.978;2023-03-01T02:23:36;-2.00;99.90
17571;DHT22;8903;52.220;20.978;2023-03-01T02:26:09;-2.00;99.90
17571;DHT22;8903;52.220;20.978;2023-03-01T02:28:43;-2.00;99.90
17571;DHT22;8903;52.220;20.978;2023-03-01T02:31:14;-2.00;99.90
17571;DHT22;8903;52.220;20.978;2023-03-01T02:34:00;-2.10;99.90
17571;DHT22;8903;52.220;20.978;2023-03-01T02:36:35;-2.10;99.90
17571;DHT22;8903;52.220;20.978;2023-03-01T02:39:05;-2.10;99.90
17571;DHT22;8903;52.220;20.978;2023-03-01T02:41:35;-2.10;99.90
17571;DHT22;8903;52.220;20.978;2023-03-01T02:44:05;-2.20;99.90
17571;DHT22;8903;52.220;20.978;2023-03-01T02:46:32;-2.20;99.90
17571;DHT22;8903;52.220;20.978;2023-03-01T02:48:59;-2.20;99.90
17571;DHT22;8903;52.220;20.978;2023-03-01T02:51:45;-2.20;99.90
17571;DHT22;8903;52.220;20.978;2023-03-01T02:54:21;-2.30;99.90
17571;DHT22;8903;52.220;20.978;2023-03-01T02:56:52;-2.30;99.90
17571;DHT22;8903;52.220;20.978;2023-03-01T02:59:24;-2.30;99.90
17571;DHT22;8903;52.220;20.978;2023-03-01T03:01:53;-2.30;99.90
17571;DHT22;8903;52.220;20.978;2023-03-01T03:04:20;-2.40;99.90
17571;DHT22;8903;52.220;20.978;2023-03-01T03:06:50;-2.30;99.90
17571;DHT22;8903;52.220;20.978;2023-03-01T03:09:18;-2.40;99.90
17571;DHT22;8903;52.220;20.978;2023-03-01T03:11:46;-2.40;99.90
17571;DHT22;8903;52.220;20.978;2023-03-01T03:14:15;-2.40;99.90
17571;DHT22;8903;52.220;20.978;2023-03-01T03:16:48;-2.40;99.90
17571;DHT22;8903;52.220;20.978;2023-03-01T03:19:16;-2.40;99.90
17571;DHT22;8903;52.220;20.978;2023-03-01T03:21:43;-2.50;99.90
17571;DHT22;8903;52.220;20.978;2023-03-01T03:24:10;-2.50;99.90
17571;DHT22;8903;52.220;20.978;2023-03-01T03:26:37;-2.50;99.90
17571;DHT22;8903;52.220;20.978;2023-03-01T03:29:04;-2.50;99.90
17571;DHT22;8903;52.220;20.978;2023-03-01T03:31:31;-2.50;99.90
17571;DHT22;8903;52.220;20.978;2023-03-01T03:34:00;-2.50;99.90
17571;DHT22;8903;52.220;20.978;2023-03-01T03:36:27;-2.50;99.90
17571;DHT22;8903;52.220;20.978;2023-03-01T03:38:54;-2.50;99.90
17571;DHT22;8903;52.220;20.978;2023-03-01T03:41:21;-2.50;99.90
17571;DHT22;8903;52.220;20.978;2023-03-01T03:43:48;-2.50;99.90
17571;DHT22;8903;52.220;20.978;2023-03-01T03:46:15;-2.40;99.90
17571;DHT22;8903;52.220;20.978;2023-03-01T03:48:44;-2.40;99.90
17571;DHT22;8903;52.220;20.978;2023-03-01T03:51:14;-2.40;99.90
17571;DHT22;8903;52.220;20.978;2023-03-01T03:53:42;-2.30;99.90
17571;DHT22;8903;52.220;20.978;2023-03-01T03:56:09;-2.30;99.90
17571;DHT22;8903;52.220;20.978;2023-03-01T03:58:37;-2.30;99.90
17571;DHT22;8903;52.220;20.978;2023-03-01T04:01:04;-2.20;99.90
17571;DHT22;8903;52.220;20.978;2023-03-01T04:03:32;-2.30;99.90
17571;DHT22;8903;52.220;20.978;2023-03-01T04:06:01;-2.30;99.90
17571;DHT22;8903;52.220;20.978;2023-03-01T04:08:29;-2.20;99.90
17571;DHT22;8903;52.220;20.978;2023-03-01T04:10:59;-2.20;99.90
17571;DHT22;8903;52.220;20.978;2023-03-01T04:13:47;-2.20;99.90
17571;DHT22;8903;52.220;20.978;2023-03-01T04:16:14;-2.30;99.90
17571;DHT22;8903;52.220;20.978;2023-03-01T04:18:41;-2.30;99.90
17571;DHT22;8903;52.220;20.978;2023-03-01T04:21:09;-2.20;99.90
17571;DHT22;8903;52.220;20.978;2023-03-01T04:23:38;-2.20;99.90
17571;DHT22;8903;52.220;20.978;2023-03-01T04:26:07;-2.20;99.90
17571;DHT22;8903;52.220;20.978;2023-03-01T04:28:35;-2.30;99.90
17571;DHT22;8903;52.220;20.978;2023-03-01T04:31:04;-2.30;99.90
17571;DHT22;8903;52.220;20.978;2023-03-01T04:33:39;-2.30;99.90
17571;DHT22;8903;52.220;20.978;2023-03-01T04:36:07;-2.20;99.90
17571;DHT22;8903;52.220;20.978;2023-03-01T04:38:36;-2.20;99.90
17571;DHT22;8903;52.220;20.978;2023-03-01T04:41:06;-2.20;99.90
17571;DHT22;8903;52.220;20.978;2023-03-01T04:43:34;-2.20;99.90
17571;DHT22;8903;52.220;20.978;2023-03-01T04:46:02;-2.20;99.90
17571;DHT22;8903;52.220;20.978;2023-03-01T04:48:30;-2.20;99.90
17571;DHT22;8903;52.220;20.978;2023-03-01T04:50:58;-2.30;99.90
17571;DHT22;8903;52.220;20.978;2023-03-01T04:53:26;-2.30;99.90
17571;DHT22;8903;52.220;20.978;2023-03-01T04:55:54;-2.30;99.90
17571;DHT22;8903;52.220;20.978;2023-03-01T04:58:23;-2.30;99.90
17571;DHT22;8903;52.220;20.978;2023-03-01T05:00:51;-2.30;99.90
17571;DHT22;8903;52.220;20.978;2023-03-01T05:03:18;-2.40;99.90
17571;DHT22;8903;52.220;20.978;2023-03-01T05:05:46;-2.40;99.90
17571;DHT22;8903;52.220;20.978;2023-03-01T05:08:14;-2.40;99.90
17571;DHT22;8903;52.220;20.978;2023-03-01T05:10:48;-2.40;99.90
17571;DHT22;8903;52.220;20.978;2023-03-01T05:13:16;-2.40;99.90
17571;DHT22;8903;52.220;20.978;2023-03-01T05:15:48;-2.40;99.90
17571;DHT22;8903;52.220;20.978;2023-03-01T05:18:20;-2.40;99.90
17571;DHT22;8903;52.220;20.978;2023-03-01T05:20:47;-2.40;99.90
17571;DHT22;8903;52.220;20.978;2023-03-01T05:23:14;-2.40;99.90
17571;DHT22;8903;52.220;20.978;2023-03-01T05:25:41;-2.40;99.90
17571;DHT22;8903;52.220;20.978;2023-03-01T05:28:11;-2.40;99.90
17571;DHT22;8903;52.220;20.978;2023-03-01T05:30:38;-2.40;99.90
17571;DHT22;8903;52.220;20.978;2023-03-01T05:33:08;-2.40;99.90
17571;DHT22;8903;52.220;20.978;2023-03-01T05:35:40;-2.40;99.90
17571;DHT22;8903;52.220;20.978;2023-03-01T05:38:08;-2.40;99.90
17571;DHT22;8903;52.220;20.978;2023-03-01T05:40:39;-2.30;99.90
17571;DHT22;8903;52.220;20.978;2023-03-01T05:43:06;-2.30;99.90
17571;DHT22;8903;52.220;20.978;2023-03-01T05:45:36;-2.20;99.90
17571;DHT22;8903;52.220;20.978;2023-03-01T05:48:04;-2.20;99.90
17571;DHT22;8903;52.220;20.978;2023-03-01T05:50:35;-2.10;99.90
17571;DHT22;8903;52.220;20.978;2023-03-01T05:53:04;-2.10;99.90
17571;DHT22;8903;52.220;20.978;2023-03-01T05:55:31;-2.10;99.90
17571;DHT22;8903;52.220;20.978;2023-03-01T05:57:59;-2.10;99.90
17571;DHT22;8903;52.220;20.978;2023-03-01T06:00:26;-2.00;99.90
17571;DHT22;8903;52.220;20.978;2023-03-01T06:02:54;-2.00;99.90
17571;DHT22;8903;52.220;20.978;2023-03-01T06:05:21;-1.90;99.90
17571;DHT22;8903;52.220;20.978;2023-03-01T06:07:50;-1.90;99.90
17571;DHT22;8903;52.220;20.978;2023-03-01T06:10:20;-1.80;99.90
17571;DHT22;8903;52.220;20.978;2023-03-01T06:12:48;-1.80;99.90
17571;DHT22;8903;52.220;20.978;2023-03-01T06:15:16;-1.80;99.90
17571;DHT22;8903;52.220;20.978;2023-03-01T06:17:45;-1.70;99.90
17571;DHT22;8903;52.220;20.978;2023-03-01T06:20:14;-1.70;99.90
17571;DHT22;8903;52.220;20.978;2023-03-01T06:22:42;-1.70;99.90
17571;DHT22;8903;52.220;20.978;2023-03-01T06:25:13;-1.60;99.90
17571;DHT22;8903;52.220;20.978;2023-03-01T06:27:40;-1.50;99.90
17571;DHT22;8903;52.220;20.978;2023-03-01T06:30:09;-1.50;99.90
17571;DHT22;8903;52.220;20.978;2023-03-01T06:32:36;-1.40;99.90
17571;DHT22;8903;52.220;20.978;2023-03-01T06:35:08;-1.40;99.90
17571;DHT22;8903;52.220;20.978;2023-03-01T06:37:35;-1.30;99.90
17571;DHT22;8903;52.220;20.978;2023-03-01T06:40:02;-1.30;99.90
17571;DHT22;8903;52.220;20.978;2023-03-01T06:42:35;-1.30;99.90
17571;DHT22;8903;52.220;20.978;2023-03-01T06:45:03;-1.20;99.90
17571;DHT22;8903;52.220;20.978;2023-03-01T06:47:30;-1.10;99.90
17571;DHT22;8903;52.220;20.978;2023-03-01T06:49:58;-1.10;99.90
17571;DHT22;8903;52.220;20.978;2023-03-01T06:52:25;-1.10;99.90
17571;DHT22;8903;52.220;20.978;2023-03-01T06:54:53;-1.00;99.90
17571;DHT22;8903;52.220;20.978;2023-03-01T06:57:20;-1.00;99.90
17571;DHT22;8903;52.220;20.978;2023-03-01T06:59:48;-0.90;99.90
17571;DHT22;8903;52.220;20.978;2023-03-01T07:02:15;-0.90;99.90
17571;DHT22;8903;52.220;20.978;2023-03-01T07:04:43;-0.80;99.90
17571;DHT22;8903;52.220;20.978;2023-03-01T07:07:13;-0.80;99.90
17571;DHT22;8903;52.220;20.978;2023-03-01T07:09:45;-0.70;99.90
17571;DHT22;8903;52.220;20.978;2023-03-01T07:12:12;-0.60;99.90
17571;DHT22;8903;52.220;20.978;2023-03-01T07:14:39;-0.60;99.90
17571;DHT22;8903;52.220;20.978;2023-03-01T07:17:07;-0.60;99.90
17571;DHT22;8903;52.220;20.978;2023-03-01T07:19:34;-0.60;99.90
17571;DHT22;8903;52.220;20.978;2023-03-01T07:22:02;-0.50;99.90
17571;DHT22;8903;52.220;20.978;2023-03-01T07:24:29;-0.50;99.90
17571;DHT22;8903;52.220;20.978;2023-03-01T07:26:57;-0.40;99.90
17571;DHT22;8903;52.220;20.978;2023-03-01T07:29:24;-0.20;99.90
17571;DHT22;8903;52.220;20.978;2023-03-01T07:31:51;-0.10;99.90
17571;DHT22;8903;52.220;20.978;2023-03-01T07:34:19;0.00;99.90
17571;DHT22;8903;52.220;20.978;2023-03-01T07:36:46;0.00;99.90
17571;DHT22;8903;52.220;20.978;2023-03-01T07:39:13;0.10;99.90
17571;DHT22;8903;52.220;20.978;2023-03-01T07:41:40;0.20;99.90
17571;DHT22;8903;52.220;20.978;2023-03-01T07:44:07;0.20;99.90
17571;DHT22;8903;52.220;20.978;2023-03-01T07:46:34;0.30;99.90
17571;DHT22;8903;52.220;20.978;2023-03-01T07:49:01;0.30;99.90
17571;DHT22;8903;52.220;20.978;2023-03-01T07:51:31;0.50;99.90
17571;DHT22;8903;52.220;20.978;2023-03-01T07:53:58;0.50;99.90
17571;DHT22;8903;52.220;20.978;2023-03-01T07:56:25;0.50;99.90
17571;DHT22;8903;52.220;20.978;2023-03-01T07:58:52;0.60;99.90
17571;DHT22;8903;52.220;20.978;2023-03-01T08:01:21;0.70;99.90
17571;DHT22;8903;52.220;20.978;2023-03-01T08:03:48;0.70;99.90
17571;DHT22;8903;52.220;20.978;2023-03-01T08:06:17;0.80;99.90
17571;DHT22;8903;52.220;20.978;2023-03-01T08:08:45;0.80;99.90
17571;DHT22;8903;52.220;20.978;2023-03-01T08:11:14;0.90;99.90
17571;DHT22;8903;52.220;20.978;2023-03-01T08:13:42;0.90;99.90
17571;DHT22;8903;52.220;20.978;2023-03-01T08:16:11;1.00;99.90
17571;DHT22;8903;52.220;20.978;2023-03-01T08:18:39;1.00;99.90
17571;DHT22;8903;52.220;20.978;2023-03-01T08:21:07;1.10;99.90
17571;DHT22;8903;52.220;20.978;2023-03-01T08:23:35;1.30;99.90
17571;DHT22;8903;52.220;20.978;2023-03-01T08:26:09;1.40;99.90
17571;DHT22;8903;52.220;20.978;2023-03-01T08:28:38;1.50;99.90
17571;DHT22;8903;52.220;20.978;2023-03-01T08:31:14;1.50;99.90
17571;DHT22;8903;52.220;20.978;2023-03-01T08:33:41;1.50;99.90
17571;DHT22;8903;52.220;20.978;2023-03-01T08:36:08;1.50;99.90
17571;DHT22;8903;52.220;20.978;2023-03-01T08:38:35;1.60;99.90
17571;DHT22;8903;52.220;20.978;2023-03-01T08:41:03;1.70;99.90
17571;DHT22;8903;52.220;20.978;2023-03-01T08:43:32;1.90;99.90
17571;DHT22;8903;52.220;20.978;2023-03-01T08:45:59;2.10;99.90
17571;DHT22;8903;52.220;20.978;2023-03-01T08:48:28;2.10;99.90
17571;DHT22;8903;52.220;20.978;2023-03-01T08:50:55;2.00;99.90
17571;DHT22;8903;52.220;20.978;2023-03-01T08:53:22;2.10;99.90
17571;DHT22;8903;52.220;20.978;2023-03-01T08:55:49;2.10;99.90
17571;DHT22;8903;52.220;20.978;2023-03-01T08:58:16;2.10;99.90
17571;DHT22;8903;52.220;20.978;2023-03-01T09:00:45;2.30;99.90
17571;DHT22;8903;52.220;20.978;2023-03-01T09:03:12;2.30;99.90
17571;DHT22;8903;52.220;20.978;2023-03-01T09:05:39;2.40;99.90
17571;DHT22;8903;52.220;20.978;2023-03-01T09:08:06;2.50;99.90
17571;DHT22;8903;52.220;20.978;2023-03-01T09:10:37;2.60;99.90
17571;DHT22;8903;52.220;20.978;2023-03-01T09:13:04;2.50;99.90
17571;DHT22;8903;52.220;20.978;2023-03-01T09:15:31;2.70;99.90
17571;DHT22;8903;52.220;20.978;2023-03-01T09:18:00;2.90;99.90
17571;DHT22;8903;52.220;20.978;2023-03-01T09:20:27;2.90;99.90
17571;DHT22;8903;52.220;20.978;2023-03-01T09:22:54;3.10;99.90
17571;DHT22;8903;52.220;20.978;2023-03-01T09:25:21;3.10;99.90
17571;DHT22;8903;52.220;20.978;2023-03-01T09:27:50;3.20;99.90
17571;DHT22;8903;52.220;20.978;2023-03-01T09:30:18;3.40;99.90
17571;DHT22;8903;52.220;20.978;2023-03-01T09:32:45;3.50;99.90
17571;DHT22;8903;52.220;20.978;2023-03-01T09:35:13;3.70;99.90
17571;DHT22;8903;52.220;20.978;2023-03-01T09:37:40;3.70;99.90
17571;DHT22;8903;52.220;20.978;2023-03-01T09:40:12;3.70;99.90
17571;DHT22;8903;52.220;20.978;2023-03-01T09:42:48;3.70;99.90
17571;DHT22;8903;52.220;20.978;2023-03-01T09:45:25;3.80;99.90
17571;DHT22;8903;52.220;20.978;2023-03-01T09:47:53;3.80;99.90
17571;DHT22;8903;52.220;20.978;2023-03-01T09:50:23;3.80;99.90
17571;DHT22;8903;52.220;20.978;2023-03-01T09:52:58;3.90;99.90
17571;DHT22;8903;52.220;20.978;2023-03-01T09:55:33;3.90;99.90
17571;DHT22;8903;52.220;20.978;2023-03-01T10:01:29;4.00;99.90
17571;DHT22;8903;52.220;20.978;2023-03-01T10:04:20;4.00;99.90
17571;DHT22;8903;52.220;20.978;2023-03-01T10:07:04;4.00;99.90
17571;DHT22;8903;52.220;20.978;2023-03-01T10:09:34;4.10;99.90
17571;DHT22;8903;52.220;20.978;2023-03-01T10:12:07;4.20;99.90
17571;DHT22;8903;52.220;20.978;2023-03-01T10:14:39;4.30;99.90
17571;DHT22;8903;52.220;20.978;2023-03-01T10:17:19;4.50;99.90
17571;DHT22;8903;52.220;20.978;2023-03-01T10:19:51;4.50;99.90
17571;DHT22;8903;52.220;20.978;2023-03-01T10:22:21;4.50;99.90
17571;DHT22;8903;52.220;20.978;2023-03-01T10:24:50;4.50;99.90
17571;DHT22;8903;52.220;20.978;2023-03-01T10:27:22;4.50;99.90
17571;DHT22;8903;52.220;20.978;2023-03-01T10:29:56;4.60;99.90
17571;DHT22;8903;52.220;20.978;2023-03-01T10:32:26;4.50;99.90
17571;DHT22;8903;52.220;20.978;2023-03-01T10:34:53;4.50;99.90
17571;DHT22;8903;52.220;20.978;2023-03-01T10:37:22;4.40;99.90
17571;DHT22;8903;52.220;20.978;2023-03-01T10:39:58;4.50;99.90
17571;DHT22;8903;52.220;20.978;2023-03-01T10:42:29;4.60;99.90
17571;DHT22;8903;52.220;20.978;2023-03-01T10:44:58;4.60;99.90
17571;DHT22;8903;52.220;20.978;2023-03-01T10:47:40;4.70;99.90
17571;DHT22;8903;52.220;20.978;2023-03-01T10:50:19;4.70;99.90
17571;DHT22;8903;52.220;20.978;2023-03-01T10:52:58;4.70;99.90
17571;DHT22;8903;52.220;20.978;2023-03-01T10:55:31;4.90;99.90
17571;DHT22;8903;52.220;20.978;2023-03-01T10:58:17;4.80;99.90
17571;DHT22;8903;52.220;20.978;2023-03-01T11:00:48;4.60;99.90
17571;DHT22;8903;52.220;20.978;2023-03-01T11:03:19;4.70;99.90
17571;DHT22;8903;52.220;20.978;2023-03-01T11:05:57;4.70;99.90
17571;DHT22;8903;52.220;20.978;2023-03-01T11:08:46;4.60;99.90
17571;DHT22;8903;52.220;20.978;2023-03-01T11:11:21;4.80;99.90
17571;DHT22;8903;52.220;20.978;2023-03-01T11:13:55;4.80;99.90
17571;DHT22;8903;52.220;20.978;2023-03-01T11:16:28;4.80;99.90
17571;DHT22;8903;52.220;20.978;2023-03-01T11:19:00;4.80;99.90
17571;DHT22;8903;52.220;20.978;2023-03-01T11:21:31;5.00;99.90
17571;DHT22;8903;52.220;20.978;2023-03-01T11:24:01;5.10;99.90
17571;DHT22;8903;52.220;20.978;2023-03-01T11:26:31;5.30;99.90
17571;DHT22;8903;52.220;20.978;2023-03-01T11:29:06;5.50;99.90
17571;DHT22;8903;52.220;20.978;2023-03-01T11:31:34;5.50;99.90
17571;DHT22;8903;52.220;20.978;2023-03-01T11:34:06;5.60;99.90
17571;DHT22;8903;52.220;20.978;2023-03-01T11:36:41;5.70;99.90
17571;DHT22;8903;52.220;20.978;2023-03-01T11:39:21;5.80;99.90
17571;DHT22;8903;52.220;20.978;2023-03-01T11:42:02;5.80;99.90
17571;DHT22;8903;52.220;20.978;2023-03-01T11:44:33;5.90;99.90
17571;DHT22;8903;52.220;20.978;2023-03-01T11:47:18;6.00;99.90
17571;DHT22;8903;52.220;20.978;2023-03-01T11:50:09;6.50;99.90
17571;DHT22;8903;52.220;20.978;2023-03-01T11:52:46;7.90;99.90
17571;DHT22;8903;52.220;20.978;2023-03-01T11:55:27;8.50;99.90
17571;DHT22;8903;52.220;20.978;2023-03-01T11:58:20;8.60;99.20
17571;DHT22;8903;52.220;20.978;2023-03-01T12:01:02;8.60;99.00
17571;DHT22;8903;52.220;20.978;2023-03-01T12:06:59;8.50;99.10
17571;DHT22;8903;52.220;20.978;2023-03-01T12:09:38;8.20;99.80
17571;DHT22;8903;52.220;20.978;2023-03-01T12:12:34;8.40;99.50
17571;DHT22;8903;52.220;20.978;2023-03-01T12:15:28;8.30;99.50
17571;DHT22;8903;52.220;20.978;2023-03-01T12:18:24;8.40;99.50
17571;DHT22;8903;52.220;20.978;2023-03-01T12:21:05;8.40;99.90
17571;DHT22;8903;52.220;20.978;2023-03-01T12:23:49;9.00;99.30
17571;DHT22;8903;52.220;20.978;2023-03-01T12:26:25;10.50;97.50
17571;DHT22;8903;52.220;20.978;2023-03-01T12:29:18;11.50;96.10
17571;DHT22;8903;52.220;20.978;2023-03-01T12:32:06;13.30;92.90
17571;DHT22;8903;52.220;20.978;2023-03-01T12:35:02;14.80;90.50
17571;DHT22;8903;52.220;20.978;2023-03-01T12:37:42;15.60;89.70
17571;DHT22;8903;52.220;20.978;2023-03-01T12:46:18;14.10;91.00
17571;DHT22;8903;52.220;20.978;2023-03-01T12:48:52;13.90;90.10
17571;DHT22;8903;52.220;20.978;2023-03-01T12:51:23;13.30;91.10
17571;DHT22;8903;52.220;20.978;2023-03-01T12:53:53;12.60;92.40
17571;DHT22;8903;52.220;20.978;2023-03-01T12:56:25;12.40;93.00
17571;DHT22;8903;52.220;20.978;2023-03-01T12:59:00;12.30;92.90
17571;DHT22;8903;52.220;20.978;2023-03-01T13:01:39;12.00;93.70
17571;DHT22;8903;52.220;20.978;2023-03-01T13:04:27;11.40;94.10
17571;DHT22;8903;52.220;20.978;2023-03-01T13:07:11;10.60;95.50
17571;DHT22;8903;52.220;20.978;2023-03-01T13:09:49;10.80;95.80
17571;DHT22;8903;52.220;20.978;2023-03-01T13:12:51;11.20;95.70
17571;DHT22;8903;52.220;20.978;2023-03-01T13:15:26;11.60;95.20
17571;DHT22;8903;52.220;20.978;2023-03-01T13:17:57;11.50;95.50
17571;DHT22;8903;52.220;20.978;2023-03-01T13:20:27;11.00;95.40
17571;DHT22;8903;52.220;20.978;2023-03-01T13:23:06;11.30;95.90
17571;DHT22;8903;52.220;20.978;2023-03-01T13:25:35;11.80;95.40
17571;DHT22;8903;52.220;20.978;2023-03-01T13:28:49;11.70;95.00
17571;DHT22;8903;52.220;20.978;2023-03-01T13:34:55;12.40;94.70
17571;DHT22;8903;52.220;20.978;2023-03-01T13:37:25;12.90;94.20
17571;DHT22;8903;52.220;20.978;2023-03-01T13:39:56;13.40;93.90
17571;DHT22;8903;52.220;20.978;2023-03-01T13:42:45;14.10;92.70
17571;DHT22;8903;52.220;20.978;2023-03-01T13:45:25;13.90;92.30
17571;DHT22;8903;52.220;20.978;2023-03-01T13:48:02;13.40;93.70
17571;DHT22;8903;52.220;20.978;2023-03-01T13:50:38;12.60;94.00
17571;DHT22;8903;52.220;20.978;2023-03-01T13:53:14;12.40;94.80
17571;DHT22;8903;52.220;20.978;2023-03-01T13:55:44;11.90;94.70
17571;DHT22;8903;52.220;20.978;2023-03-01T13:58:19;11.20;95.70
17571;DHT22;8903;52.220;20.978;2023-03-01T14:00:54;10.50;96.70
17571;DHT22;8903;52.220;20.978;2023-03-01T14:03:21;9.70;97.50
17571;DHT22;8903;52.220;20.978;2023-03-01T14:06:01;9.10;98.30
17571;DHT22;8903;52.220;20.978;2023-03-01T14:08:30;8.70;99.10
17571;DHT22;8903;52.220;20.978;2023-03-01T14:11:21;8.40;99.80
17571;DHT22;8903;52.220;20.978;2023-03-01T14:14:26;8.40;99.90
17571;DHT22;8903;52.220;20.978;2023-03-01T14:17:06;8.20;99.90
17571;DHT22;8903;52.220;20.978;2023-03-01T14:19:37;8.10;99.90
17571;DHT22;8903;52.220;20.978;2023-03-01T14:22:17;8.00;99.90
17571;DHT22;8903;52.220;20.978;2023-03-01T14:24:48;7.90;99.90
17571;DHT22;8903;52.220;20.978;2023-03-01T14:27:18;7.60;99.90
17571;DHT22;8903;52.220;20.978;2023-03-01T14:29:55;7.40;99.90
17571;DHT22;8903;52.220;20.978;2023-03-01T14:32:26;7.20;99.90
17571;DHT22;8903;52.220;20.978;2023-03-01T14:34:53;7.20;99.90
17571;DHT22;8903;52.220;20.978;2023-03-01T14:37:24;7.30;99.90
17571;DHT22;8903;52.220;20.978;2023-03-01T14:39:53;7.40;99.90
17571;DHT22;8903;52.220;20.978;2023-03-01T14:42:21;7.50;99.90
17571;DHT22;8903;52.220;20.978;2023-03-01T14:44:50;7.60;99.90
17571;DHT22;8903;52.220;20.978;2023-03-01T14:47:25;7.70;99.90
17571;DHT22;8903;52.220;20.978;2023-03-01T14:49:57;7.70;99.90
17571;DHT22;8903;52.220;20.978;2023-03-01T14:52:33;7.70;99.90
17571;DHT22;8903;52.220;20.978;2023-03-01T14:55:03;7.70;99.90
17571;DHT22;8903;52.220;20.978;2023-03-01T14:57:31;7.70;99.90
17571;DHT22;8903;52.220;20.978;2023-03-01T15:00:00;7.80;99.90
17571;DHT22;8903;52.220;20.978;2023-03-01T15:02:31;7.70;99.90
17571;DHT22;8903;52.220;20.978;2023-03-01T15:05:01;7.60;99.90
17571;DHT22;8903;52.220;20.978;2023-03-01T15:07:34;7.60;99.90
17571;DHT22;8903;52.220;20.978;2023-03-01T15:10:04;7.60;99.90
17571;DHT22;8903;52.220;20.978;2023-03-01T15:12:37;7.60;99.90
17571;DHT22;8903;52.220;20.978;2023-03-01T15:15:26;7.60;99.90
17571;DHT22;8903;52.220;20.978;2023-03-01T15:17:58;7.50;99.90
17571;DHT22;8903;52.220;20.978;2023-03-01T15:20:27;7.30;99.90
17571;DHT22;8903;52.220;20.978;2023-03-01T15:22:57;7.10;99.90
17571;DHT22;8903;52.220;20.978;2023-03-01T15:25:26;7.00;99.90
17571;DHT22;8903;52.220;20.978;2023-03-01T15:27:55;7.00;99.90
17571;DHT22;8903;52.220;20.978;2023-03-01T15:30:26;6.90;99.90
17571;DHT22;8903;52.220;20.978;2023-03-01T15:33:20;6.80;99.90
17571;DHT22;8903;52.220;20.978;2023-03-01T15:35:48;6.70;99.90
17571;DHT22;8903;52.220;20.978;2023-03-01T15:38:35;6.50;99.90
17571;DHT22;8903;52.220;20.978;2023-03-01T15:41:20;6.50;99.90
17571;DHT22;8903;52.220;20.978;2023-03-01T15:43:48;6.40;99.90
17571;DHT22;8903;52.220;20.978;2023-03-01T15:46:23;6.40;99.90
17571;DHT22;8903;52.220;20.978;2023-03-01T15:48:53;6.40;99.90
17571;DHT22;8903;52.220;20.978;2023-03-01T15:51:33;6.40;99.90
17571;DHT22;8903;52.220;20.978;2023-03-01T15:54:05;6.30;99.90
17571;DHT22;8903;52.220;20.978;2023-03-01T15:56:32;6.30;99.90
17571;DHT22;8903;52.220;20.978;2023-03-01T15:59:01;6.20;99.90
17571;DHT22;8903;52.220;20.978;2023-03-01T16:01:29;6.20;99.90
17571;DHT22;8903;52.220;20.978;2023-03-01T16:03:56;6.20;99.90
17571;DHT22;8903;52.220;20.978;2023-03-01T16:06:24;6.20;99.90
17571;DHT22;8903;52.220;20.978;2023-03-01T16:08:52;6.10;99.90
17571;DHT22;8903;52.220;20.978;2023-03-01T16:11:21;6.10;99.90
17571;DHT22;8903;52.220;20.978;2023-03-01T16:13:48;6.10;99.90
17571;DHT22;8903;52.220;20.978;2023-03-01T16:16:16;6.00;99.90
17571;DHT22;8903;52.220;20.978;2023-03-01T16:18:44;6.00;99.90
17571;DHT22;8903;52.220;20.978;2023-03-01T16:21:14;6.00;99.90